Lindbergh, Missouri
Current Conditions -  °F | °C
As of 2:54 AM on Wednesday 28 Jan 2015 (Local Time) from KCOU Reporting Station
Clear Clear  
Wind Chill: 23°   Ceiling: Unl
Heat Index: 32°   Visibility: 7mi
Dew Point: 29°   Wind: 12mph
Humidity: 88%   Direction: 120°ESE
Pressure: 30.14"   Gusts: NA
Location:  39.0235°N, 92.2896°W
Report Text: KCOU 280854Z AUTO 12010KT 7SM CLR 00/M02 A3014 RMK AO2 SLP209 T00001017 58008
Loading
Personal Weather Stations






























Interactive Weather Map New forecast layout! Learn more

10-Day Weather Forecast

Advertisements
Track Severe Weather on mobile